Time;durP1;ratioP1;P1;durP2;ratioP2;P2;SDS_P1;SDS_P2;PMS_P1;PMS_P2;Temp;Humidity;BMP_temperature;BMP_pressure;BME280_temperature;BME280_humidity;BME280_pressure;Samples;Min_cycle;Max_cycle;Signal;HPM_P1;HPM_P2
2022/06/11 00:00:22;;;;;;;3.85;2.42;;;;;;;24.62;52.75;100335.94;1692339;83;21091;-90
2022/06/11 00:02:49;;;;;;;2.47;2.00;;;;;;;24.62;52.76;100327.02;1692510;83;21071;-90
2022/06/11 00:05:15;;;;;;;3.12;2.42;;;;;;;24.62;52.79;100324.23;1694817;83;21107;-90
2022/06/11 00:07:42;;;;;;;3.15;2.30;;;;;;;24.63;52.79;100327.83;1692383;83;21102;-90
2022/06/11 00:10:09;;;;;;;2.90;2.42;;;;;;;24.62;52.80;100322.84;1692583;84;21633;-91
2022/06/11 00:12:36;;;;;;;2.77;2.40;;;;;;;24.62;52.80;100319.25;1722651;81;21042;-89
2022/06/11 00:15:09;;;;;;;2.77;2.17;;;;;;;24.62;52.80;100322.84;1719716;83;21109;-90
2022/06/11 00:17:35;;;;;;;3.00;2.35;;;;;;;24.62;52.80;100310.33;1709961;83;21144;-90
2022/06/11 00:20:07;;;;;;;3.22;2.33;;;;;;;24.63;52.79;100316.13;1718738;83;21144;-90
2022/06/11 00:22:33;;;;;;;2.30;2.10;;;;;;;24.63;52.80;100314.73;1719793;82;21560;-90
2022/06/11 00:25:00;;;;;;;2.72;2.30;;;;;;;24.64;52.79;100325.28;1720246;82;21174;-90
2022/06/11 00:27:26;;;;;;;2.62;2.20;;;;;;;24.62;52.80;100317.28;1720081;83;21541;-90
2022/06/11 00:29:53;;;;;;;4.20;2.37;;;;;;;24.63;52.81;100318.09;1719968;82;21564;-90
2022/06/11 00:32:19;;;;;;;2.92;2.30;;;;;;;24.63;52.81;100318.09;1720334;82;21057;-90
2022/06/11 00:34:46;;;;;;;2.50;2.10;;;;;;;24.63;52.81;100323.08;1702205;83;20994;-90
2022/06/11 00:37:13;;;;;;;3.15;2.20;;;;;;;24.63;52.80;100325.05;1710545;82;21496;-90
2022/06/11 00:39:39;;;;;;;4.28;2.50;;;;;;;24.63;52.82;100322.27;1720584;82;21114;-90
2022/06/11 00:42:11;;;;;;;2.47;2.27;;;;;;;24.63;52.80;100315.31;1720808;82;21058;-90
2022/06/11 00:44:37;;;;;;;2.90;2.22;;;;;;;24.63;52.80;100320.30;1720141;82;21167;-90
2022/06/11 00:47:21;;;;;;;2.98;2.50;;;;;;;24.64;52.79;100323.31;1720649;83;21595;-91
2022/06/11 00:49:56;;;;;;;2.75;2.45;;;;;;;24.64;52.81;100325.28;1720493;82;21093;-90
2022/06/11 00:52:41;;;;;;;2.67;2.25;;;;;;;24.64;52.81;100324.70;1720160;82;21594;-90
2022/06/11 00:55:13;;;;;;;3.87;2.42;;;;;;;24.63;52.79;100320.88;1696744;83;21085;-90
2022/06/11 00:57:50;;;;;;;3.10;2.47;;;;;;;24.63;52.78;100322.27;1712760;82;21073;-90
2022/06/11 01:00:33;;;;;;;2.60;2.27;;;;;;;24.62;52.80;100315.89;1712760;82;21022;-90
2022/06/11 01:03:02;;;;;;;2.60;2.17;;;;;;;24.62;52.79;100319.25;1713089;83;21091;-90
2022/06/11 01:05:33;;;;;;;3.90;2.30;;;;;;;24.62;52.80;100313.69;1712452;83;21579;-90
2022/06/11 01:08:20;;;;;;;2.72;2.42;;;;;;;24.62;52.80;100313.69;1713151;82;21073;-89
2022/06/11 01:11:07;;;;;;;2.80;2.33;;;;;;;24.60;52.80;100301.55;1712505;83;21010;-90
2022/06/11 01:14:13;;;;;;;3.55;2.17;;;;;;;24.62;52.80;100300.59;1713131;82;21045;-90
2022/06/11 01:17:10;;;;;;;3.52;2.30;;;;;;;24.60;52.80;100304.33;1712871;83;21285;-90
2022/06/11 01:19:56;;;;;;;2.75;2.15;;;;;;;24.61;52.80;100314.87;1713004;82;21098;-90
2022/06/11 01:23:11;;;;;;;2.75;1.95;;;;;;;24.60;52.82;100318.81;1712627;82;21081;-90
2022/06/11 01:26:13;;;;;;;3.87;2.27;;;;;;;24.58;52.82;100314.98;1694925;82;21059;-90
2022/06/11 01:29:21;;;;;;;2.65;2.27;;;;;;;24.57;52.82;100318.34;1642283;83;21678;-90
2022/06/11 01:31:56;;;;;;;3.40;2.30;;;;;;;24.56;52.82;100318.14;1713158;82;21948;-90
2022/06/11 01:34:34;;;;;;;2.75;2.22;;;;;;;24.56;52.83;100316.75;1712256;82;21093;-90
2022/06/11 01:37:12;;;;;;;4.17;2.30;;;;;;;24.55;52.86;100316.52;1713097;82;21501;-90
2022/06/11 01:39:53;;;;;;;3.85;2.37;;;;;;;24.56;52.89;100311.77;1712580;83;21096;-90
2022/06/11 01:42:24;;;;;;;3.70;2.52;;;;;;;24.55;52.91;100322.08;1712985;82;21006;-90
2022/06/11 01:45:23;;;;;;;2.83;2.12;;;;;;;24.55;52.90;100316.52;1694463;83;21149;-90
2022/06/11 01:47:52;;;;;;;4.97;2.47;;;;;;;24.56;52.93;100317.34;1712464;82;21485;-90
2022/06/11 01:50:22;;;;;;;2.77;2.25;;;;;;;24.55;52.93;100311.53;1712802;83;21058;-90
2022/06/11 01:53:06;;;;;;;2.60;2.27;;;;;;;24.54;52.94;100307.12;1712869;82;21438;-90
2022/06/11 01:55:44;;;;;;;2.50;2.12;;;;;;;24.55;52.96;100312.34;1697040;83;21134;-90
2022/06/11 01:58:28;;;;;;;2.83;2.12;;;;;;;24.55;52.96;100319.30;1722553;83;21438;-90
2022/06/11 02:01:09;;;;;;;3.10;2.40;;;;;;;24.57;52.96;100321.13;1710914;82;21455;-90
2022/06/11 02:03:52;;;;;;;;;;;;;;;24.55;52.93;100319.30;1713781;83;21059;-90
2022/06/11 02:06:56;;;;;;;2.83;2.22;;;;;;;24.55;52.96;100317.10;1711090;83;20230;-91
2022/06/11 02:09:54;;;;;;;4.40;2.70;;;;;;;24.54;52.93;100326.02;1711426;82;21055;-91
2022/06/11 02:12:38;;;;;;;2.87;2.25;;;;;;;24.53;52.93;100316.63;1711175;83;21178;-90
2022/06/11 02:15:12;;;;;;;2.58;2.00;;;;;;;24.53;52.94;100320.23;1711247;82;21024;-90
2022/06/11 02:17:41;;;;;;;3.27;2.20;;;;;;;24.52;52.95;100315.85;1707397;82;20968;-90
2022/06/11 02:20:25;;;;;;;2.58;2.27;;;;;;;24.53;52.98;100321.62;1698404;83;21056;-90
2022/06/11 02:23:02;;;;;;;4.37;2.30;;;;;;;24.54;52.98;100323.82;1692613;84;21026;-91
2022/06/11 02:25:37;;;;;;;3.17;2.10;;;;;;;24.53;53.00;100320.23;1710914;83;21482;-90
2022/06/11 02:28:08;;;;;;;2.58;2.37;;;;;;;24.53;53.00;100321.62;1692663;84;21030;-90
2022/06/11 02:30:34;;;;;;;3.37;2.27;;;;;;;24.52;53.01;100317.24;1743791;81;21099;-91
2022/06/11 02:33:01;;;;;;;3.30;2.40;;;;;;;24.54;53.01;100316.87;1664129;84;21272;-90
2022/06/11 02:35:41;;;;;;;3.33;2.45;;;;;;;24.55;53.03;100331.00;1703548;83;21082;-90
2022/06/11 02:38:11;;;;;;;3.58;2.02;;;;;;;24.53;53.04;100324.40;1704091;83;21167;-90
2022/06/11 02:40:45;;;;;;;2.58;2.33;;;;;;;24.56;53.03;100334.02;1703498;84;20964;-90
2022/06/11 02:43:12;;;;;;;4.30;2.30;;;;;;;24.55;53.03;100329.61;1703893;83;21034;-90
2022/06/11 02:45:38;;;;;;;3.05;2.30;;;;;;;24.55;53.04;100334.59;1703749;83;21054;-91
2022/06/11 02:48:05;;;;;;;3.52;2.27;;;;;;;24.56;53.04;100338.20;1703590;84;21055;-91
2022/06/11 02:50:33;;;;;;;2.65;2.22;;;;;;;24.55;53.05;100341.55;1703443;84;21617;-91
2022/06/11 02:53:00;;;;;;;4.10;2.40;;;;;;;24.56;53.04;100343.17;1703921;84;20954;-91
2022/06/11 02:55:27;;;;;;;4.45;2.42;;;;;;;24.55;53.06;100342.13;1687691;83;21010;-90
2022/06/11 02:57:55;;;;;;;2.90;2.12;;;;;;;24.56;53.05;100352.91;1673228;84;21013;-91
2022/06/11 03:00:26;;;;;;;2.85;2.22;;;;;;;24.56;53.05;100348.73;1673228;84;21057;-91
2022/06/11 03:02:53;;;;;;;3.75;2.12;;;;;;;24.57;53.05;100354.50;1672952;84;21156;-90
2022/06/11 03:05:23;;;;;;;2.50;2.27;;;;;;;24.57;53.07;100351.72;1655048;85;21093;-90
2022/06/11 03:07:50;;;;;;;3.60;2.40;;;;;;;24.57;53.08;100353.69;1673281;84;21555;-90
2022/06/11 03:10:19;;;;;;;2.60;1.92;;;;;;;24.57;53.08;100350.33;1672891;84;21528;-90
2022/06/11 03:12:46;;;;;;;2.75;2.27;;;;;;;24.57;53.09;100350.91;1673490;84;21535;-90
2022/06/11 03:15:14;;;;;;;4.42;2.60;;;;;;;24.56;53.08;100350.13;1673226;84;21129;-90
2022/06/11 03:17:41;;;;;;;3.25;2.77;;;;;;;24.57;53.11;100351.72;1672973;84;21065;-90
2022/06/11 03:20:09;;;;;;;2.95;2.42;;;;;;;24.56;53.10;100352.91;1673199;84;21480;-90
2022/06/11 03:22:35;;;;;;;2.52;2.33;;;;;;;24.57;53.11;100358.68;1673107;85;21076;-90
2022/06/11 03:25:02;;;;;;;2.52;2.15;;;;;;;24.56;53.11;100364.03;1673121;84;21638;-90
2022/06/11 03:27:28;;;;;;;2.85;2.10;;;;;;;24.57;53.11;100363.42;1673084;85;22010;-91
2022/06/11 03:29:55;;;;;;;2.40;2.20;;;;;;;24.57;53.11;100367.02;1673056;84;21045;-90
2022/06/11 03:32:21;;;;;;;2.65;2.30;;;;;;;24.56;53.12;100366.81;1673025;85;21100;-91
2022/06/11 03:34:48;;;;;;;2.30;1.90;;;;;;;24.57;53.11;100370.38;1673235;84;21016;-90
2022/06/11 03:37:14;;;;;;;4.10;2.20;;;;;;;24.56;53.13;100365.42;1673247;84;21095;-90
2022/06/11 03:39:41;;;;;;;3.35;2.40;;;;;;;24.57;53.13;100374.55;1672898;84;21516;-91
2022/06/11 03:42:08;;;;;;;2.40;2.20;;;;;;;24.57;53.16;100375.36;1673270;84;21029;-90
2022/06/11 03:44:35;;;;;;;3.22;2.58;;;;;;;24.57;53.16;100368.99;1673208;84;21471;-90
2022/06/11 03:47:02;;;;;;;2.80;2.17;;;;;;;24.57;53.15;100364.81;1672904;84;21602;-91
2022/06/11 03:49:29;;;;;;;3.27;2.33;;;;;;;24.57;53.15;100360.07;1655810;85;21571;-90
2022/06/11 03:51:55;;;;;;;3.08;2.40;;;;;;;24.56;53.15;100368.78;1673113;84;21851;-91
2022/06/11 03:54:22;;;;;;;4.00;2.02;;;;;;;24.58;53.15;100372.01;1672872;84;21069;-91
2022/06/11 03:56:50;;;;;;;2.83;2.30;;;;;;;24.57;53.16;100371.19;1672858;84;21104;-90
2022/06/11 03:59:16;;;;;;;2.87;2.10;;;;;;;24.57;53.15;100368.99;1673114;84;21550;-90
2022/06/11 04:01:44;;;;;;;6.53;2.50;;;;;;;24.56;53.12;100362.64;1673053;84;21093;-91
2022/06/11 04:04:13;;;;;;;3.37;2.20;;;;;;;24.57;53.14;100373.97;1655717;85;21170;-90
2022/06/11 04:06:59;;;;;;;3.42;2.27;;;;;;;24.57;53.14;100376.75;1673466;85;21077;-90
2022/06/11 04:09:30;;;;;;;3.72;2.17;;;;;;;24.56;53.11;100373.77;1672580;84;21100;-91
2022/06/11 04:11:57;;;;;;;2.55;2.17;;;;;;;24.56;53.12;100379.91;1655780;84;21073;-90
2022/06/11 04:14:23;;;;;;;2.85;2.10;;;;;;;24.56;53.15;100382.11;1673441;85;21492;-90
2022/06/11 04:16:54;;;;;;;5.08;2.27;;;;;;;24.55;53.13;100389.41;1673008;84;21527;-91
2022/06/11 04:19:25;;;;;;;3.47;2.20;;;;;;;24.56;53.13;100394.63;1673348;84;21088;-91
2022/06/11 04:21:52;;;;;;;4.78;2.33;;;;;;;24.56;53.16;100390.45;1672439;84;21085;-90
2022/06/11 04:24:19;;;;;;;2.60;2.25;;;;;;;24.56;53.16;100394.63;1673099;84;21056;-90
2022/06/11 04:26:47;;;;;;;2.77;2.10;;;;;;;24.56;53.16;100394.63;1677825;84;21073;-90
2022/06/11 04:29:16;;;;;;;2.30;1.90;;;;;;;24.56;53.16;100391.84;1673321;84;21729;-91
2022/06/11 04:31:43;;;;;;;2.50;2.22;;;;;;;24.56;53.17;100390.45;1673185;84;21080;-90
2022/06/11 04:34:11;;;;;;;3.67;2.02;;;;;;;24.56;53.17;100394.63;1673211;84;21116;-91
2022/06/11 04:36:38;;;;;;;2.75;2.17;;;;;;;24.55;53.18;100394.40;1673175;84;21081;-90
2022/06/11 04:39:05;;;;;;;5.50;2.67;;;;;;;24.57;53.19;100399.00;1655538;84;21575;-91
2022/06/11 04:41:32;;;;;;;4.15;2.10;;;;;;;24.56;53.19;100392.42;1673087;85;21840;-91
2022/06/11 04:43:58;;;;;;;3.52;2.45;;;;;;;24.56;53.21;100401.59;1673040;84;21057;-90
2022/06/11 04:46:25;;;;;;;3.00;2.37;;;;;;;24.56;53.22;100403.55;1672943;84;21009;-90
2022/06/11 04:48:52;;;;;;;2.80;2.30;;;;;;;24.56;53.22;100408.53;1673232;85;21079;-91
2022/06/11 04:51:19;;;;;;;2.42;2.22;;;;;;;24.56;53.22;100406.34;1673120;84;21096;-90
2022/06/11 04:53:45;;;;;;;3.37;1.85;;;;;;;24.56;53.23;100411.31;1672996;84;21207;-90
2022/06/11 04:56:17;;;;;;;3.20;2.22;;;;;;;24.56;53.23;100412.70;1672967;84;21009;-90
2022/06/11 04:58:44;;;;;;;2.37;2.17;;;;;;;24.56;53.22;100411.90;1673345;84;21100;-90
2022/06/11 05:01:10;;;;;;;2.70;2.10;;;;;;;24.57;53.22;100411.52;1672894;84;21167;-90
2022/06/11 05:03:37;;;;;;;4.25;2.08;;;;;;;24.56;53.24;100410.51;1673242;84;21040;-90
2022/06/11 05:06:04;;;;;;;3.27;2.40;;;;;;;24.56;53.24;100404.95;1673212;84;21131;-91
2022/06/11 05:08:36;;;;;;;3.62;2.27;;;;;;;24.56;53.25;100409.12;1672934;85;21057;-91
2022/06/11 05:11:04;;;;;;;3.58;2.60;;;;;;;24.57;53.25;100410.70;1673218;84;21065;-90
2022/06/11 05:13:31;;;;;;;2.40;2.20;;;;;;;24.55;53.26;100411.66;1673145;84;21052;-90
2022/06/11 05:15:58;;;;;;;2.58;2.20;;;;;;;24.54;53.28;100414.20;1655335;85;21040;-90
2022/06/11 05:18:25;;;;;;;4.15;2.08;;;;;;;24.56;53.27;100414.67;1673133;85;21157;-90
2022/06/11 05:20:52;;;;;;;4.20;2.40;;;;;;;24.56;53.30;100416.06;1673310;85;21476;-91
2022/06/11 05:23:18;;;;;;;3.58;2.15;;;;;;;24.56;53.29;100420.23;1672852;84;21060;-90
2022/06/11 05:25:46;;;;;;;3.02;2.25;;;;;;;24.56;53.29;100417.45;1673212;85;21068;-90
2022/06/11 05:28:17;;;;;;;3.35;2.30;;;;;;;24.56;53.27;100418.84;1673149;84;21111;-90
2022/06/11 05:30:43;;;;;;;3.17;2.47;;;;;;;24.55;53.29;100427.77;1673256;84;20902;-90
2022/06/11 05:33:10;;;;;;;3.98;2.27;;;;;;;24.56;53.29;100426.62;1655467;85;21069;-91
2022/06/11 05:35:36;;;;;;;3.75;2.37;;;;;;;24.57;53.30;100437.95;1655453;85;21021;-90
2022/06/11 05:38:06;;;;;;;3.33;2.47;;;;;;;24.56;53.30;100437.74;1673006;84;21037;-90
2022/06/11 05:40:38;;;;;;;3.62;2.27;;;;;;;24.55;53.29;100440.29;1673283;85;21148;-90
2022/06/11 05:43:05;;;;;;;3.22;2.70;;;;;;;24.56;53.30;100441.09;1673304;84;21088;-90
2022/06/11 05:45:36;;;;;;;2.83;2.30;;;;;;;24.56;53.30;100437.74;1672933;84;21052;-91
2022/06/11 05:48:03;;;;;;;3.33;2.35;;;;;;;24.56;53.31;100439.70;1673266;85;21555;-91
2022/06/11 05:50:33;;;;;;;2.87;2.30;;;;;;;24.57;53.28;100444.09;1673218;84;21002;-91
2022/06/11 05:53:00;;;;;;;2.55;2.25;;;;;;;24.56;53.28;100443.30;1673096;84;21053;-90
2022/06/11 05:55:28;;;;;;;3.35;2.60;;;;;;;24.57;53.29;100448.26;1673336;84;21591;-91
2022/06/11 05:57:54;;;;;;;4.42;2.40;;;;;;;24.57;53.28;100451.85;1673251;85;21152;-90
2022/06/11 06:00:22;;;;;;;3.72;2.60;;;;;;;24.58;53.28;100456.84;1673225;84;21055;-91
2022/06/11 06:02:49;;;;;;;3.08;2.45;;;;;;;24.57;53.28;100457.99;1673301;84;21519;-90
2022/06/11 06:05:19;;;;;;;3.45;2.55;;;;;;;24.57;53.26;100456.02;1673509;84;21065;-91
2022/06/11 06:07:46;;;;;;;4.12;2.20;;;;;;;24.58;53.25;100452.66;1673051;85;21020;-90
2022/06/11 06:10:13;;;;;;;3.22;2.40;;;;;;;24.58;53.24;100456.27;1673298;84;21052;-90
2022/06/11 06:12:39;;;;;;;3.00;2.35;;;;;;;24.58;53.22;100454.88;1673195;84;21052;-90
2022/06/11 06:15:13;;;;;;;3.08;2.27;;;;;;;24.58;53.22;100445.13;1673050;84;21110;-91
2022/06/11 06:17:39;;;;;;;2.80;2.25;;;;;;;24.58;53.22;100446.52;1673302;84;21116;-91
2022/06/11 06:20:14;;;;;;;4.50;2.30;;;;;;;24.60;53.20;100448.97;1673312;84;21148;-91
2022/06/11 06:22:41;;;;;;;2.60;2.10;;;;;;;24.60;53.21;100450.93;1672949;84;21100;-90
2022/06/11 06:25:09;;;;;;;2.98;2.17;;;;;;;24.60;53.20;100449.54;1673044;84;21072;-90
2022/06/11 06:27:36;;;;;;;2.52;2.10;;;;;;;24.59;53.21;100443.17;1673286;84;21064;-90
2022/06/11 06:30:03;;;;;;;3.65;2.25;;;;;;;24.60;53.21;100456.50;1672996;84;21053;-91
2022/06/11 06:32:29;;;;;;;3.50;2.27;;;;;;;24.58;53.20;100453.48;1673147;85;21559;-90
2022/06/11 06:34:56;;;;;;;2.72;2.10;;;;;;;24.58;53.21;100457.66;1673155;85;21033;-90
2022/06/11 06:37:22;;;;;;;3.22;2.25;;;;;;;24.58;53.23;100463.22;1672955;85;21070;-90
2022/06/11 06:39:49;;;;;;;3.33;2.22;;;;;;;24.60;53.21;100464.27;1673170;84;21100;-90
2022/06/11 06:42:15;;;;;;;2.62;2.20;;;;;;;24.60;53.22;100464.84;1673181;85;21460;-91
2022/06/11 06:44:42;;;;;;;2.72;2.33;;;;;;;24.60;53.23;100463.45;1672999;84;21560;-90
2022/06/11 06:47:08;;;;;;;2.80;2.27;;;;;;;24.61;53.22;100466.47;1673065;85;21199;-90
2022/06/11 06:49:35;;;;;;;2.92;2.40;;;;;;;24.59;53.22;100462.64;1673293;85;21029;-90
2022/06/11 06:52:01;;;;;;;3.65;2.15;;;;;;;24.60;53.23;100469.02;1673102;85;21579;-90
2022/06/11 06:54:28;;;;;;;3.22;2.05;;;;;;;24.60;53.22;100471.22;1673185;84;21443;-90
2022/06/11 06:56:54;;;;;;;4.28;2.30;;;;;;;24.60;53.22;100479.56;1679094;83;21416;-91
2022/06/11 06:59:22;;;;;;;3.85;2.40;;;;;;;24.60;53.22;100479.56;1683063;85;21059;-90
2022/06/11 07:01:48;;;;;;;3.17;2.20;;;;;;;24.60;53.24;100478.75;1683099;85;21060;-90
2022/06/11 07:04:15;;;;;;;2.87;2.40;;;;;;;24.60;53.23;100482.34;1683281;83;21072;-90
2022/06/11 07:06:42;;;;;;;2.45;2.20;;;;;;;24.58;53.24;100474.34;1683040;83;21087;-91
2022/06/11 07:09:09;;;;;;;3.90;2.45;;;;;;;24.60;53.23;100477.36;1663619;85;22134;-90
2022/06/11 07:11:36;;;;;;;3.47;2.35;;;;;;;24.60;53.23;100473.19;1683197;83;21139;-90
2022/06/11 07:14:08;;;;;;;3.02;2.00;;;;;;;24.58;53.27;100477.13;1682955;84;21811;-90
2022/06/11 07:16:39;;;;;;;2.87;2.30;;;;;;;24.60;53.28;100477.36;1683275;84;21154;-90
2022/06/11 07:19:13;;;;;;;3.08;2.35;;;;;;;24.60;53.27;100485.70;1682801;83;21048;-90
2022/06/11 07:21:54;;;;;;;2.92;2.30;;;;;;;24.60;53.30;100489.30;1683510;85;21174;-90
2022/06/11 07:24:26;;;;;;;3.02;2.00;;;;;;;24.59;53.30;100497.41;1683059;84;21394;-90
2022/06/11 07:26:55;;;;;;;3.40;2.25;;;;;;;24.58;53.30;100500.77;1683243;85;21104;-90
2022/06/11 07:29:26;;;;;;;2.87;2.52;;;;;;;24.58;53.29;100503.55;1683381;85;21052;-90
2022/06/11 07:31:54;;;;;;;;;;;;;;;24.58;53.30;100506.91;1685345;83;21123;-90
2022/06/11 07:34:24;;;;;;;3.12;2.30;;;;;;;24.58;53.31;100504.94;1683243;84;21965;-90
2022/06/11 07:36:50;;;;;;;3.37;2.58;;;;;;;24.56;53.30;100505.89;1683062;84;21598;-90
2022/06/11 07:39:17;;;;;;;3.10;2.40;;;;;;;24.56;53.32;100512.84;1683091;84;21076;-91
2022/06/11 07:41:43;;;;;;;2.65;2.20;;;;;;;24.57;53.33;100513.62;1683143;83;21577;-90
2022/06/11 07:44:15;;;;;;;2.65;2.40;;;;;;;24.57;53.33;100515.02;1683171;85;21080;-91
2022/06/11 07:46:42;;;;;;;3.02;2.33;;;;;;;24.56;53.31;100514.23;1682991;84;21582;-90
2022/06/11 07:49:08;;;;;;;2.33;2.10;;;;;;;24.56;53.33;100516.20;1682971;83;21045;-90
2022/06/11 07:51:35;;;;;;;3.10;2.40;;;;;;;24.56;53.35;100522.57;1683138;84;21139;-90
2022/06/11 07:54:01;;;;;;;4.03;2.35;;;;;;;24.56;53.36;100518.98;1682815;84;21556;-91
2022/06/11 07:56:28;;;;;;;2.65;2.25;;;;;;;24.56;53.37;100524.54;1683115;83;21108;-90
2022/06/11 07:58:54;;;;;;;3.37;2.52;;;;;;;24.57;53.35;100521.97;1682829;85;20973;-90
2022/06/11 08:01:27;;;;;;;2.45;2.22;;;;;;;24.57;53.36;100526.14;1682687;84;20994;-90
2022/06/11 08:03:53;;;;;;;2.95;2.60;;;;;;;24.57;53.38;100524.75;1682839;85;21088;-90
2022/06/11 08:06:20;;;;;;;3.10;2.45;;;;;;;24.56;53.39;100521.18;1682713;83;21506;-89
2022/06/11 08:08:49;;;;;;;3.95;2.87;;;;;;;24.57;53.38;100526.95;1682549;83;21450;-90
2022/06/11 08:11:14;;;;;;;3.80;2.60;;;;;;;24.57;53.35;100520.00;1682703;83;21887;-90
2022/06/11 08:13:47;;;;;;;4.08;2.30;;;;;;;24.57;53.38;100524.75;1682620;83;21080;-90
2022/06/11 08:16:13;;;;;;;2.70;2.30;;;;;;;24.56;53.37;100519.79;1682529;85;21068;-91
2022/06/11 08:18:40;;;;;;;4.30;2.50;;;;;;;24.57;53.37;100524.75;1682778;85;21609;-90
2022/06/11 08:21:06;;;;;;;3.90;2.42;;;;;;;24.56;53.38;100525.36;1682717;84;21095;-89
2022/06/11 08:23:33;;;;;;;3.90;2.35;;;;;;;24.56;53.38;100526.75;1682521;84;21880;-90
2022/06/11 08:26:02;;;;;;;2.95;2.47;;;;;;;24.57;53.37;100524.17;1682698;84;21016;-90
2022/06/11 08:28:29;;;;;;;3.77;2.47;;;;;;;24.57;53.38;100523.36;1682739;83;21073;-90
2022/06/11 08:30:55;;;;;;;4.25;2.60;;;;;;;24.57;53.38;100532.52;1682548;83;21306;-90
2022/06/11 08:33:22;;;;;;;2.87;2.67;;;;;;;24.56;53.38;100535.09;1682981;85;21107;-90
2022/06/11 08:35:48;;;;;;;3.12;2.80;;;;;;;24.55;53.39;100529.29;1682924;84;21899;-90
2022/06/11 08:38:15;;;;;;;3.33;2.85;;;;;;;24.56;53.39;100532.31;1682638;84;21116;-90
2022/06/11 08:40:48;;;;;;;4.10;2.60;;;;;;;24.56;53.39;100531.49;1682927;84;21083;-90
2022/06/11 08:43:28;;;;;;;4.05;2.55;;;;;;;24.57;53.41;100535.30;1682882;84;21111;-90
2022/06/11 08:46:03;;;;;;;3.53;2.57;;;;;;;24.57;53.41;100528.92;1682767;84;20996;-90
2022/06/11 08:48:52;;;;;;;3.17;2.40;;;;;;;24.56;53.39;100527.32;1664391;85;21498;-90
2022/06/11 08:51:44;;;;;;;3.17;2.45;;;;;;;24.55;53.42;100523.73;1681260;83;21085;-90
2022/06/11 08:54:15;;;;;;;2.62;2.40;;;;;;;24.55;53.40;100532.65;1682586;84;21107;-90
2022/06/11 08:57:01;;;;;;;4.25;2.80;;;;;;;24.55;53.40;100535.43;1682459;84;21098;-90
2022/06/11 09:00:07;;;;;;;3.40;2.55;;;;;;;24.55;53.43;100531.26;1682663;84;21048;-90
2022/06/11 09:03:19;;;;;;;2.90;2.60;;;;;;;24.54;53.44;100532.41;1682611;84;21861;-90
2022/06/11 09:06:12;;;;;;;3.22;2.62;;;;;;;24.52;53.43;100533.36;1683012;84;21021;-90
2022/06/11 09:09:02;;;;;;;3.05;2.75;;;;;;;24.51;53.45;100535.33;1682632;85;21013;-91
2022/06/11 09:11:40;;;;;;;3.65;3.00;;;;;;;24.51;53.47;100536.72;1683115;85;21123;-90
2022/06/11 09:14:38;;;;;;;3.00;2.47;;;;;;;24.51;53.48;100531.73;1682287;83;21075;-90
2022/06/11 09:17:35;;;;;;;3.77;3.35;;;;;;;24.50;53.53;100528.71;1682904;84;21760;-90
2022/06/11 09:20:39;;;;;;;4.53;2.87;;;;;;;24.50;53.56;100536.48;1682529;85;21510;-90
2022/06/11 09:23:35;;;;;;;4.62;2.95;;;;;;;24.50;53.56;100535.66;1682901;85;21029;-90
2022/06/11 09:26:25;;;;;;;3.25;2.60;;;;;;;24.49;53.58;100532.65;1682492;85;21025;-89
2022/06/11 09:29:15;;;;;;;2.87;2.52;;;;;;;24.48;53.60;100533.25;1682792;83;21154;-90
2022/06/11 09:31:51;;;;;;;3.05;2.50;;;;;;;24.48;53.62;100534.64;1682779;83;21309;-90
2022/06/11 09:34:38;;;;;;;3.25;2.40;;;;;;;24.48;53.64;100531.05;1682356;83;21009;-90
2022/06/11 09:37:18;;;;;;;4.10;3.02;;;;;;;24.48;53.67;100527.69;1668987;84;21005;-90
2022/06/11 09:40:11;;;;;;;3.12;2.58;;;;;;;24.48;53.68;100529.08;1682741;83;21137;-90
2022/06/11 09:43:11;;;;;;;3.35;2.77;;;;;;;24.49;53.70;100530.68;1643325;86;22247;-90
2022/06/11 09:46:14;;;;;;;3.72;2.83;;;;;;;24.48;53.70;100529.66;1680513;83;21171;-90
2022/06/11 09:48:58;;;;;;;3.42;2.52;;;;;;;24.49;53.71;100529.86;1682534;83;21034;-90
2022/06/11 09:51:39;;;;;;;2.85;2.52;;;;;;;24.47;53.69;100530.23;1682700;84;21525;-90
2022/06/11 09:54:17;;;;;;;;;;;;;;;24.48;53.74;100529.66;1685117;83;21074;-90
2022/06/11 09:57:07;;;;;;;3.17;2.60;;;;;;;24.48;53.77;100528.27;1685203;83;20879;-90
2022/06/11 09:59:50;;;;;;;3.87;2.70;;;;;;;24.46;53.76;100525.02;1719991;82;21504;-90
2022/06/11 10:02:44;;;;;;;3.17;2.83;;;;;;;24.46;53.77;100525.83;1720050;83;21401;-90
2022/06/11 10:05:27;;;;;;;2.70;2.50;;;;;;;24.47;53.78;100525.25;1656325;84;21043;-90
2022/06/11 10:07:58;;;;;;;4.35;2.70;;;;;;;24.47;53.79;100528.03;1682696;84;21531;-90
2022/06/11 10:10:28;;;;;;;2.85;2.65;;;;;;;24.47;53.82;100525.25;1692457;84;21039;-90
2022/06/11 10:13:02;;;;;;;3.47;2.85;;;;;;;24.47;53.82;100521.08;1692763;83;21427;-90
2022/06/11 10:15:33;;;;;;;3.08;2.47;;;;;;;24.47;53.84;100518.30;1692450;83;21118;-90
2022/06/11 10:18:17;;;;;;;3.10;2.37;;;;;;;24.47;53.84;100516.33;1692947;84;21614;-89
2022/06/11 10:20:52;;;;;;;2.83;2.55;;;;;;;24.48;53.85;100513.79;1692484;83;21131;-90
2022/06/11 10:23:53;;;;;;;2.98;2.52;;;;;;;24.49;53.85;100509.01;1692607;84;21518;-91
2022/06/11 10:26:39;;;;;;;3.27;2.37;;;;;;;24.48;53.87;100506.83;1692430;84;21955;-90
2022/06/11 10:29:25;;;;;;;3.17;2.47;;;;;;;24.49;53.85;100509.01;1691635;83;21052;-89
2022/06/11 10:32:09;;;;;;;2.45;2.25;;;;;;;24.49;53.87;100503.45;1692613;84;21010;-90
2022/06/11 10:34:37;;;;;;;3.47;2.62;;;;;;;24.49;53.88;100509.82;1692811;84;21079;-90
2022/06/11 10:37:29;;;;;;;3.00;2.50;;;;;;;24.50;53.89;100507.85;1672814;84;21478;-90
2022/06/11 10:40:01;;;;;;;2.72;2.47;;;;;;;24.49;53.89;100504.26;1692599;83;23093;-90
2022/06/11 10:42:49;;;;;;;3.00;2.70;;;;;;;24.50;53.88;100502.30;1692424;83;21518;-90
2022/06/11 10:45:16;;;;;;;2.95;2.50;;;;;;;24.49;53.90;100497.30;1692774;83;21107;-90
2022/06/11 10:47:53;;;;;;;3.45;2.98;;;;;;;24.50;53.88;100496.73;1692306;83;21115;-91
2022/06/11 10:50:37;;;;;;;3.08;2.58;;;;;;;24.50;53.90;100491.98;1692477;83;21076;-90
2022/06/11 10:53:27;;;;;;;4.72;3.00;;;;;;;24.51;53.92;100499.17;1692152;83;21217;-90
2022/06/11 10:56:13;;;;;;;3.50;2.90;;;;;;;24.50;53.90;100488.38;1692712;83;21052;-90
2022/06/11 10:59:02;;;;;;;2.95;2.65;;;;;;;24.50;53.89;100486.99;1671155;85;20944;-91
2022/06/11 11:01:39;;;;;;;3.67;2.50;;;;;;;24.51;53.89;100494.19;1688302;85;21129;-90
2022/06/11 11:04:34;;;;;;;2.70;2.40;;;;;;;24.50;53.89;100488.38;1683374;83;21075;-91
2022/06/11 11:07:17;;;;;;;3.10;2.65;;;;;;;24.50;53.92;100487.81;1688987;85;21258;-90
2022/06/11 11:09:44;;;;;;;3.83;2.70;;;;;;;24.50;53.89;100489.20;1688371;85;21119;-90
2022/06/11 11:12:21;;;;;;;3.92;2.80;;;;;;;24.50;53.90;100483.64;1688411;85;21141;-90
2022/06/11 11:15:14;;;;;;;3.60;2.80;;;;;;;24.51;53.92;100485.27;1688348;85;21001;-90
2022/06/11 11:17:52;;;;;;;3.15;2.67;;;;;;;24.51;53.92;100488.63;1688647;85;21097;-90
2022/06/11 11:20:37;;;;;;;3.70;2.98;;;;;;;24.50;53.93;100489.20;1688412;85;22082;-90
2022/06/11 11:23:26;;;;;;;3.37;2.75;;;;;;;24.51;53.94;100491.41;1688297;85;21057;-89
2022/06/11 11:26:35;;;;;;;3.77;2.72;;;;;;;24.49;53.95;100487.58;1687655;83;21099;-90
2022/06/11 11:29:09;;;;;;;3.98;2.75;;;;;;;24.51;53.94;100492.80;1688389;85;21607;-90
2022/06/11 11:31:53;;;;;;;2.98;2.60;;;;;;;24.51;53.92;100495.58;1687797;83;21044;-90
2022/06/11 11:34:29;;;;;;;3.17;2.87;;;;;;;24.50;53.93;100488.38;1688411;85;21118;-89
2022/06/11 11:37:17;;;;;;;3.50;3.00;;;;;;;24.50;53.94;100490.59;1708047;82;21527;-89
2022/06/11 11:39:57;;;;;;;2.90;2.60;;;;;;;24.50;53.94;100485.61;1713048;83;21114;-90
2022/06/11 11:42:29;;;;;;;2.83;2.53;;;;;;;24.51;53.95;100492.22;1712754;83;21075;-89
2022/06/11 11:44:58;;;;;;;4.28;2.80;;;;;;;24.50;53.94;100489.20;1712583;83;21712;-90
2022/06/11 11:47:35;;;;;;;3.75;3.08;;;;;;;24.50;53.99;100485.03;1712602;82;21285;-89
2022/06/11 11:50:28;;;;;;;3.22;2.92;;;;;;;24.50;54.00;100485.03;1712877;83;21039;-90
2022/06/11 11:53:04;;;;;;;3.30;2.85;;;;;;;24.51;54.02;100487.23;1712555;83;21071;-89
2022/06/11 11:55:39;;;;;;;3.65;2.50;;;;;;;24.51;54.03;100490.83;1712494;83;37908;-89
2022/06/11 11:58:16;;;;;;;3.52;2.62;;;;;;;24.51;54.02;100482.48;1715065;83;21085;-89